createdAt,value
2018-08-03T00:00:04.786Z,11.30
2018-08-03T00:01:04.774Z,11.69
2018-08-03T00:02:04.766Z,12.00
2018-08-03T00:03:04.751Z,11.50
2018-08-03T00:04:04.742Z,10.30
2018-08-03T00:05:04.731Z,10.39
2018-08-03T00:06:04.718Z,10.10
2018-08-03T00:07:04.707Z,10.00
2018-08-03T00:08:05.214Z,10.69
2018-08-03T00:09:04.686Z,9.80
2018-08-03T00:10:04.674Z,10.10
2018-08-03T00:11:04.664Z,9.89
2018-08-03T00:12:04.651Z,9.50
2018-08-03T00:13:04.642Z,10.10
2018-08-03T00:14:04.632Z,10.19
2018-08-03T00:15:04.618Z,10.50
2018-08-03T00:16:04.617Z,10.50
2018-08-03T00:17:04.597Z,10.50
2018-08-03T00:18:04.588Z,10.50
2018-08-03T00:19:04.576Z,10.50
2018-08-03T00:20:04.562Z,9.89
2018-08-03T00:21:04.554Z,10.30
2018-08-03T00:22:04.541Z,10.60
2018-08-03T00:23:04.531Z,9.50
2018-08-03T00:24:04.518Z,9.50
2018-08-03T00:25:04.507Z,9.60
2018-08-03T00:26:04.497Z,9.89
2018-08-03T00:27:04.485Z,10.10
2018-08-03T00:28:04.480Z,9.80
2018-08-03T00:29:04.466Z,9.10
2018-08-03T00:30:04.453Z,9.69
2018-08-03T00:31:04.441Z,9.80
2018-08-03T00:32:04.429Z,9.10
2018-08-03T00:33:04.418Z,9.19
2018-08-03T00:34:04.450Z,8.39
2018-08-03T00:35:04.396Z,9.10
2018-08-03T00:36:04.384Z,9.19
2018-08-03T00:37:04.376Z,9.69
2018-08-03T00:38:04.362Z,9.69
2018-08-03T00:39:04.351Z,10.60
2018-08-03T00:40:04.351Z,10.39
2018-08-03T00:41:04.357Z,10.60
2018-08-03T00:42:04.318Z,10.39
2018-08-03T00:43:04.309Z,10.80
2018-08-03T00:44:04.299Z,10.10
2018-08-03T00:45:04.292Z,10.89
2018-08-03T00:46:04.273Z,9.69
2018-08-03T00:47:04.264Z,10.30
2018-08-03T00:48:04.255Z,10.39
2018-08-03T00:49:04.242Z,10.60
2018-08-03T00:50:04.229Z,10.19
2018-08-03T00:51:04.219Z,10.89
2018-08-03T00:52:04.208Z,10.89
2018-08-03T00:53:04.197Z,11.80
2018-08-03T00:54:04.186Z,10.69
2018-08-03T00:55:04.173Z,11.80
2018-08-03T00:56:04.163Z,10.80
2018-08-03T00:57:04.155Z,10.19
2018-08-03T00:58:04.142Z,10.39
2018-08-03T00:59:04.128Z,11.10
2018-08-03T01:00:04.119Z,10.80
2018-08-03T06:14:14.300Z,10.89
2018-08-03T06:15:14.255Z,11.60
2018-08-03T06:16:14.246Z,12.50
2018-08-03T06:17:14.234Z,12.60
2018-08-03T06:18:14.222Z,11.50
2018-08-03T06:19:14.213Z,10.69
2018-08-03T06:20:14.200Z,11.19
2018-08-03T06:21:14.188Z,10.39
2018-08-03T06:22:14.179Z,10.19
2018-08-03T06:23:14.167Z,9.89
2018-08-03T06:24:14.156Z,9.30
2018-08-03T06:25:14.144Z,8.00
2018-08-03T06:26:14.132Z,8.39
2018-08-03T06:27:14.124Z,8.50
2018-08-03T06:28:14.110Z,8.69
2018-08-03T06:29:14.101Z,7.69
2018-08-03T06:30:14.090Z,7.50
2018-08-03T06:31:14.076Z,7.90
2018-08-03T06:32:14.069Z,6.90
2018-08-03T06:33:14.056Z,6.69
2018-08-03T06:34:14.045Z,7.09
2018-08-03T06:35:14.036Z,7.09
2018-08-03T06:36:14.034Z,7.00
2018-08-03T06:37:14.017Z,7.40
2018-08-03T06:38:14.079Z,7.40
2018-08-03T06:39:13.992Z,6.90
2018-08-03T06:40:13.979Z,6.30
2018-08-03T06:41:13.972Z,5.90
2018-08-03T06:42:13.958Z,5.90
2018-08-03T06:43:13.948Z,5.59
2018-08-03T06:44:13.935Z,5.59
2018-08-03T06:45:13.926Z,5.19
2018-08-03T06:46:13.914Z,6.19
2018-08-03T06:47:13.905Z,6.40
2018-08-03T06:48:13.893Z,6.19
2018-08-03T06:49:13.883Z,6.09
2018-08-03T06:50:13.871Z,5.80
2018-08-03T06:51:13.860Z,5.30
2018-08-03T06:52:13.850Z,5.69
2018-08-03T06:53:13.840Z,5.50
2018-08-03T06:54:13.827Z,5.30
2018-08-03T06:55:13.817Z,5.19
2018-08-03T06:56:13.805Z,5.50
2018-08-03T06:57:13.797Z,5.00
2018-08-03T06:58:13.784Z,5.09
2018-08-03T06:59:13.795Z,5.00
2018-08-03T07:00:13.763Z,4.90
2018-08-03T07:01:13.751Z,4.90
2018-08-03T07:02:13.742Z,4.59
2018-08-03T07:03:13.732Z,4.50
2018-08-03T07:04:13.722Z,4.59
2018-08-03T07:05:13.712Z,4.40
2018-08-03T07:06:13.701Z,4.40
2018-08-03T07:07:13.686Z,4.09
2018-08-03T07:08:13.676Z,4.00
2018-08-03T07:09:13.667Z,3.70
2018-08-03T07:10:13.659Z,3.90
2018-08-03T07:11:13.646Z,3.59
2018-08-03T07:12:13.635Z,3.70
2018-08-03T07:13:13.625Z,3.50
2018-08-03T07:14:13.613Z,3.79
2018-08-03T07:15:13.629Z,4.00
2018-08-03T07:16:13.593Z,4.00
2018-08-03T07:17:13.579Z,3.90
2018-08-03T07:18:13.569Z,3.90
2018-08-03T07:19:13.560Z,4.19
2018-08-03T07:20:13.646Z,4.19
2018-08-03T07:21:13.538Z,4.50
2018-08-03T07:22:13.528Z,4.09
2018-08-03T07:23:13.521Z,4.09
2018-08-03T07:24:13.507Z,4.30
2018-08-03T07:25:13.496Z,4.50
2018-08-03T07:26:13.484Z,4.09
2018-08-03T07:27:13.472Z,4.09
2018-08-03T07:28:13.463Z,4.19
2018-08-03T07:29:13.452Z,4.59
2018-08-03T07:30:13.441Z,4.50
2018-08-03T07:31:13.429Z,4.40
2018-08-03T07:32:13.418Z,4.30
2018-08-03T07:33:13.408Z,4.50
2018-08-03T07:34:13.395Z,4.90
2018-08-03T07:35:13.383Z,4.59
2018-08-03T07:36:13.374Z,4.90
2018-08-03T07:37:13.361Z,4.50
2018-08-03T07:38:13.354Z,4.40
2018-08-03T07:39:13.338Z,4.59
2018-08-03T07:40:13.333Z,4.59
2018-08-03T07:41:13.318Z,4.30
2018-08-03T07:42:13.306Z,4.69
2018-08-03T07:43:13.422Z,4.69
2018-08-03T07:44:13.339Z,4.69
2018-08-03T07:45:13.277Z,4.59
2018-08-03T07:46:13.265Z,4.90
2018-08-03T07:47:13.253Z,4.69
2018-08-03T07:48:13.242Z,5.00
2018-08-03T07:49:13.231Z,4.80
2018-08-03T07:50:13.221Z,4.40
2018-08-03T07:51:13.209Z,5.00
2018-08-03T07:52:13.198Z,4.80
2018-08-03T07:53:13.195Z,4.90
2018-08-03T07:54:13.177Z,4.69
2018-08-03T07:55:13.169Z,4.50
2018-08-03T07:56:13.154Z,4.90
2018-08-03T07:57:13.145Z,4.80
2018-08-03T07:58:13.131Z,4.90
2018-08-03T07:59:13.126Z,4.59
2018-08-03T08:00:13.113Z,4.59
2018-08-03T08:01:13.101Z,5.00
2018-08-03T08:02:13.090Z,4.90
2018-08-03T08:03:13.082Z,4.80
2018-08-03T08:04:13.067Z,5.00
2018-08-03T08:05:13.056Z,5.00
2018-08-03T08:06:13.102Z,4.69
2018-08-03T08:07:13.100Z,4.90
2018-08-03T08:08:13.022Z,5.09
2018-08-03T08:09:13.010Z,5.69
2018-08-03T08:10:13.003Z,5.50
2018-08-03T08:11:12.990Z,5.90
2018-08-03T08:12:12.977Z,5.59
2018-08-03T08:13:12.970Z,5.59
2018-08-03T08:14:12.955Z,5.40
2018-08-03T08:15:13.016Z,5.50
2018-08-03T08:16:12.959Z,5.80
2018-08-03T08:17:12.925Z,6.09
2018-08-03T08:18:12.911Z,6.50
2018-08-03T08:19:12.902Z,5.69
2018-08-03T08:20:12.892Z,5.50
2018-08-03T08:21:12.879Z,5.30
2018-08-03T08:22:12.871Z,5.30
2018-08-03T08:23:12.857Z,5.40
2018-08-03T08:24:12.848Z,5.09
2018-08-03T08:25:12.835Z,5.69
2018-08-03T08:26:12.860Z,5.40
2018-08-03T08:27:12.818Z,5.50
2018-08-03T08:28:12.806Z,5.30
2018-08-03T08:29:12.791Z,5.40
2018-08-03T08:30:12.782Z,4.90
2018-08-03T08:31:12.770Z,5.30
2018-08-03T08:32:12.761Z,5.59
2018-08-03T08:33:12.751Z,5.00
2018-08-03T08:34:12.739Z,5.30
2018-08-03T08:35:12.730Z,5.30
2018-08-03T08:36:12.750Z,5.09
2018-08-03T08:37:12.706Z,5.19
2018-08-03T08:38:12.698Z,5.50
2018-08-03T08:39:12.685Z,5.19
2018-08-03T08:40:12.674Z,5.30
2018-08-03T08:41:12.662Z,5.69
2018-08-03T08:42:12.654Z,5.90
2018-08-03T08:43:12.643Z,5.40
2018-08-03T08:44:12.632Z,5.30
2018-08-03T08:45:12.626Z,5.40
2018-08-03T08:46:12.609Z,5.40
2018-08-03T08:47:12.601Z,5.30
2018-08-03T08:48:12.591Z,5.40
2018-08-03T08:49:12.589Z,5.50
2018-08-03T08:50:12.569Z,5.69
2018-08-03T08:51:12.560Z,5.30
2018-08-03T08:52:12.545Z,5.09
2018-08-03T08:53:12.580Z,5.00
2018-08-03T08:54:12.526Z,4.90
2018-08-03T08:55:12.513Z,5.09
2018-08-03T08:56:12.504Z,5.30
2018-08-03T08:57:12.491Z,5.19
2018-08-03T08:58:12.481Z,4.90
2018-08-03T08:59:12.469Z,5.09
2018-08-03T09:00:12.463Z,5.19
2018-08-03T09:01:12.520Z,5.30
2018-08-03T09:02:12.441Z,5.80
2018-08-03T09:03:12.427Z,5.09
2018-08-03T09:04:12.415Z,5.00
2018-08-03T09:05:12.404Z,5.19
2018-08-03T09:06:12.392Z,5.19
2018-08-03T09:07:12.382Z,5.80
2018-08-03T09:08:12.372Z,5.50
2018-08-03T09:09:12.362Z,5.50
2018-08-03T09:10:12.348Z,5.09
2018-08-03T09:11:12.337Z,5.30
2018-08-03T09:12:12.330Z,5.00
2018-08-03T09:13:12.355Z,5.40
2018-08-03T09:14:12.304Z,4.90
2018-08-03T09:15:12.298Z,5.50
2018-08-03T09:16:12.308Z,5.50
2018-08-03T09:17:12.270Z,5.80
2018-08-03T09:18:12.259Z,5.30
2018-08-03T09:19:12.248Z,5.09
2018-08-03T09:20:12.237Z,5.00
2018-08-03T09:21:12.230Z,5.30
2018-08-03T09:22:12.237Z,5.59
2018-08-03T09:23:12.201Z,4.90
2018-08-03T09:24:12.193Z,5.09
2018-08-03T09:25:12.182Z,5.09
2018-08-03T09:26:12.168Z,5.19
2018-08-03T09:27:12.157Z,4.80
2018-08-03T09:28:12.148Z,5.00
2018-08-03T09:29:12.137Z,5.00
2018-08-03T09:30:12.125Z,5.09
2018-08-03T09:31:12.113Z,5.19
2018-08-03T09:32:12.101Z,5.00
2018-08-03T09:33:12.090Z,5.00
2018-08-03T09:34:12.078Z,5.00
2018-08-03T09:35:12.071Z,5.19
2018-08-03T09:36:12.057Z,5.00
2018-08-03T09:37:12.048Z,5.30
2018-08-03T09:38:12.034Z,5.30
2018-08-03T09:39:12.026Z,5.19
2018-08-03T09:40:12.013Z,5.40
2018-08-03T09:41:12.003Z,5.30
2018-08-03T09:42:11.991Z,5.09
2018-08-03T09:43:11.981Z,5.09
2018-08-03T09:44:11.973Z,5.40
2018-08-03T09:45:11.958Z,5.30
2018-08-03T09:46:11.947Z,5.50
2018-08-03T09:47:11.937Z,5.09
2018-08-03T09:48:11.924Z,5.59
2018-08-03T09:49:11.928Z,5.50
2018-08-03T09:50:11.906Z,5.69
2018-08-03T09:51:11.891Z,5.30
2018-08-03T09:52:11.881Z,5.69
2018-08-03T09:53:11.869Z,5.50
2018-08-03T09:54:11.862Z,5.40
2018-08-03T09:55:11.878Z,5.50
2018-08-03T09:56:11.836Z,5.30
2018-08-03T09:57:11.829Z,5.19
2018-08-03T09:58:11.817Z,5.40
2018-08-03T09:59:11.803Z,5.50
2018-08-03T10:00:11.796Z,5.69
2018-08-03T10:01:11.782Z,5.50
2018-08-03T10:02:11.771Z,6.00
2018-08-03T10:03:11.760Z,6.30
2018-08-03T10:04:11.752Z,6.19
2018-08-03T10:05:11.741Z,6.09
2018-08-03T10:06:11.732Z,5.69
2018-08-03T10:07:11.759Z,6.00
2018-08-03T10:08:11.708Z,6.09
2018-08-03T10:09:11.696Z,6.19
2018-08-03T10:10:11.687Z,6.00
2018-08-03T10:11:11.676Z,6.00
2018-08-03T10:12:11.665Z,6.09
2018-08-03T10:13:11.654Z,6.09
2018-08-03T10:14:11.642Z,5.80
2018-08-03T10:15:11.630Z,6.00
2018-08-03T10:16:11.621Z,6.00
2018-08-03T10:17:11.635Z,6.00
2018-08-03T10:18:11.603Z,6.40
2018-08-03T10:19:11.585Z,6.59
2018-08-03T10:20:11.577Z,6.80
2018-08-03T10:21:11.565Z,6.30
2018-08-03T10:22:11.553Z,6.19
2018-08-03T10:23:11.543Z,6.40
2018-08-03T10:24:11.535Z,5.80
2018-08-03T10:25:11.523Z,5.80
2018-08-03T10:26:11.513Z,6.59
2018-08-03T10:27:11.500Z,6.80
2018-08-03T10:28:11.492Z,6.90
2018-08-03T10:29:11.481Z,6.59
2018-08-03T10:30:11.467Z,7.19
2018-08-03T10:31:11.455Z,6.90
2018-08-03T10:32:11.445Z,6.80
2018-08-03T10:33:11.434Z,7.09
2018-08-03T10:34:11.425Z,7.50
2018-08-03T10:35:11.511Z,7.09
2018-08-03T10:36:11.401Z,7.69
2018-08-03T10:37:11.392Z,7.09
2018-08-03T10:38:11.380Z,7.09
2018-08-03T10:39:11.371Z,7.59
2018-08-03T10:40:11.358Z,7.90
2018-08-03T10:41:11.349Z,7.69
2018-08-03T10:42:11.339Z,7.19
2018-08-03T10:43:11.349Z,7.19
2018-08-03T10:44:11.314Z,7.69
2018-08-03T10:45:11.308Z,7.80
2018-08-03T10:46:11.298Z,7.59
2018-08-03T10:47:11.327Z,8.00
2018-08-03T10:48:11.272Z,7.90
2018-08-03T10:49:11.263Z,7.50
2018-08-03T10:50:11.251Z,7.69
2018-08-03T10:51:11.241Z,7.09
2018-08-03T10:52:11.230Z,7.50
2018-08-03T10:53:11.217Z,7.50
2018-08-03T10:54:11.209Z,7.19
2018-08-03T10:55:11.196Z,7.30
2018-08-03T10:56:11.185Z,7.30
2018-08-03T10:57:11.174Z,7.40
2018-08-03T10:58:11.167Z,7.90
2018-08-03T10:59:11.152Z,7.90
2018-08-03T11:00:11.143Z,8.00
2018-08-03T11:01:11.184Z,7.50
2018-08-03T11:02:11.121Z,7.50
2018-08-03T11:03:11.110Z,7.59
2018-08-03T11:04:11.100Z,7.59
2018-08-03T11:05:11.087Z,7.80
2018-08-03T11:06:11.077Z,7.30
2018-08-03T11:07:11.065Z,7.40
2018-08-03T11:08:11.058Z,7.80
2018-08-03T11:09:11.046Z,7.40
2018-08-03T11:10:11.034Z,7.90
2018-08-03T11:11:11.023Z,7.59
2018-08-03T11:12:11.012Z,7.50
2018-08-03T11:13:11.001Z,8.00
2018-08-03T11:14:10.993Z,7.90
2018-08-03T11:15:10.986Z,7.59
2018-08-03T11:16:10.967Z,7.69
2018-08-03T11:17:10.956Z,7.90
2018-08-03T11:18:10.974Z,7.69
2018-08-03T11:19:10.935Z,7.80
2018-08-03T11:20:10.926Z,7.90
2018-08-03T11:21:10.913Z,8.19
2018-08-03T11:22:10.903Z,8.30
2018-08-03T11:23:10.894Z,8.00
2018-08-03T11:24:11.011Z,8.30
2018-08-03T11:25:10.876Z,8.30
2018-08-03T11:26:10.866Z,7.80
2018-08-03T11:27:10.854Z,8.19
2018-08-03T11:28:10.841Z,7.69
2018-08-03T11:29:10.828Z,7.59
2018-08-03T11:30:10.820Z,8.00
2018-08-03T11:31:10.809Z,7.80
2018-08-03T11:32:10.798Z,7.59
2018-08-03T11:33:10.787Z,7.90
2018-08-03T11:34:10.774Z,8.60
2018-08-03T11:35:10.777Z,8.00
2018-08-03T11:36:10.757Z,7.80
2018-08-03T11:37:10.744Z,8.00
2018-08-03T11:38:10.732Z,7.50
2018-08-03T11:39:10.721Z,8.50
2018-08-03T11:40:10.712Z,8.10
2018-08-03T11:41:10.699Z,8.19
2018-08-03T11:42:10.690Z,8.30
2018-08-03T11:43:10.681Z,8.19
2018-08-03T11:44:10.669Z,8.50
2018-08-03T11:45:10.659Z,8.50
2018-08-03T11:46:10.648Z,7.80
2018-08-03T11:47:10.638Z,8.19
2018-08-03T11:48:10.624Z,8.30
2018-08-03T11:49:10.613Z,8.39
2018-08-03T11:50:10.602Z,8.19
2018-08-03T11:51:10.592Z,8.50
2018-08-03T11:52:10.580Z,8.50
2018-08-03T11:53:10.569Z,8.50
2018-08-03T11:54:10.560Z,8.69
2018-08-03T11:55:10.549Z,8.50
2018-08-03T11:56:10.538Z,8.10
2018-08-03T11:57:10.526Z,8.00
2018-08-03T11:58:10.515Z,8.50
2018-08-03T11:59:10.508Z,8.10
2018-08-03T12:00:10.493Z,8.30
2018-08-03T12:01:10.485Z,8.39
2018-08-03T12:02:10.477Z,8.69
2018-08-03T12:03:10.463Z,8.60
2018-08-03T12:04:10.452Z,8.60
2018-08-03T12:05:10.440Z,8.60
2018-08-03T12:06:10.431Z,9.30
2018-08-03T12:07:10.422Z,9.19
2018-08-03T12:08:10.407Z,9.69
2018-08-03T12:09:10.396Z,9.30
2018-08-03T12:10:10.386Z,9.60
2018-08-03T12:11:10.376Z,8.89
2018-08-03T12:12:10.367Z,8.69
2018-08-03T12:13:10.353Z,8.80
2018-08-03T12:14:10.343Z,8.60
2018-08-03T12:15:10.334Z,9.00
2018-08-03T12:16:10.320Z,8.60
2018-08-03T12:17:10.310Z,8.39
2018-08-03T12:18:10.327Z,8.00
2018-08-03T12:19:10.290Z,8.30
2018-08-03T12:20:10.279Z,8.39
2018-08-03T12:21:10.266Z,8.80
2018-08-03T12:22:10.257Z,8.50
2018-08-03T12:23:10.242Z,8.19
2018-08-03T12:24:10.235Z,8.80
2018-08-03T12:25:10.224Z,8.80
2018-08-03T12:26:10.212Z,8.69
2018-08-03T12:27:10.215Z,8.60
2018-08-03T12:28:10.189Z,8.80
2018-08-03T12:29:10.182Z,9.10
2018-08-03T12:30:10.168Z,9.50
2018-08-03T12:31:10.181Z,9.10
2018-08-03T12:32:10.146Z,9.50
2018-08-03T12:33:10.134Z,8.89
2018-08-03T12:34:10.126Z,8.69
2018-08-03T12:35:10.117Z,9.10
2018-08-03T12:36:10.109Z,8.89
2018-08-03T12:37:10.146Z,9.19
2018-08-03T12:38:10.083Z,9.39
2018-08-03T12:39:10.073Z,9.10
2018-08-03T12:40:10.059Z,10.00
2018-08-03T12:41:10.051Z,9.19
2018-08-03T12:42:10.040Z,8.89
2018-08-03T12:43:10.072Z,9.89
2018-08-03T12:44:10.018Z,9.00
2018-08-03T12:45:10.008Z,8.80
2018-08-03T12:46:10.079Z,8.80
2018-08-03T12:47:09.983Z,9.10
2018-08-03T12:48:09.975Z,8.69
2018-08-03T12:49:09.963Z,8.80
2018-08-03T12:50:09.953Z,8.30
2018-08-03T12:51:09.942Z,8.30
2018-08-03T12:52:09.931Z,8.60
2018-08-03T12:53:09.919Z,8.89
2018-08-03T12:54:09.909Z,8.60
2018-08-03T12:55:09.900Z,8.80
2018-08-03T12:56:09.886Z,8.69
2018-08-03T12:57:09.877Z,8.50
2018-08-03T12:58:09.866Z,8.50
2018-08-03T12:59:09.856Z,8.50
2018-08-03T13:00:09.849Z,8.50
2018-08-03T13:01:09.918Z,8.19
2018-08-03T13:02:09.823Z,8.50
2018-08-03T13:03:09.812Z,8.80
2018-08-03T13:04:09.856Z,8.60
2018-08-03T13:05:09.788Z,8.80
2018-08-03T13:06:09.789Z,8.60
2018-08-03T13:07:09.789Z,8.50
2018-08-03T13:08:09.889Z,8.30
2018-08-03T13:09:09.745Z,8.80
2018-08-03T13:10:09.735Z,8.80
2018-08-03T13:11:09.726Z,8.39
2018-08-03T13:12:09.714Z,8.00
2018-08-03T13:13:09.723Z,8.60
2018-08-03T13:14:09.693Z,8.60
2018-08-03T13:15:09.932Z,8.80
2018-08-03T13:16:09.671Z,8.80
2018-08-03T13:17:09.660Z,8.89
2018-08-03T13:18:09.650Z,8.39
2018-08-03T13:19:09.664Z,8.30
2018-08-03T13:20:09.628Z,8.19
2018-08-03T13:21:09.643Z,8.69
2018-08-03T13:22:09.607Z,8.30
2018-08-03T13:23:09.593Z,8.60
2018-08-03T13:24:09.583Z,8.39
2018-08-03T13:25:09.581Z,8.60
2018-08-03T13:26:09.562Z,8.80
2018-08-03T13:27:09.600Z,8.60
2018-08-03T13:28:09.542Z,8.50
2018-08-03T13:29:09.530Z,8.69
2018-08-03T13:30:09.520Z,9.00
2018-08-03T13:31:09.509Z,8.50
2018-08-03T13:32:09.497Z,8.30
2018-08-03T13:33:09.492Z,8.30
2018-08-03T13:34:09.477Z,8.60
2018-08-03T13:35:09.466Z,8.30
2018-08-03T13:36:09.472Z,8.60
2018-08-03T13:37:09.447Z,8.30
2018-08-03T13:38:09.433Z,7.80
2018-08-03T13:39:09.458Z,8.00
2018-08-03T13:40:09.414Z,7.80
2018-08-03T13:41:09.404Z,7.90
2018-08-03T13:42:09.393Z,7.50
2018-08-03T13:43:09.382Z,7.50
2018-08-03T13:44:09.370Z,8.10
2018-08-03T13:45:09.361Z,7.80
2018-08-03T13:46:09.348Z,7.59
2018-08-03T13:47:09.346Z,7.90
2018-08-03T13:48:09.325Z,8.19
2018-08-03T13:49:09.316Z,7.69
2018-08-03T13:50:09.307Z,8.00
2018-08-03T13:51:09.296Z,8.19
2018-08-03T13:52:09.287Z,7.59
2018-08-03T13:53:09.275Z,7.90
2018-08-03T13:54:09.263Z,7.90
2018-08-03T13:55:09.253Z,8.00
2018-08-03T13:56:09.244Z,8.10
2018-08-03T13:57:09.233Z,7.90
2018-08-03T13:58:09.219Z,7.69
2018-08-03T13:59:09.210Z,8.00
2018-08-03T14:00:09.198Z,7.90
2018-08-03T14:01:09.189Z,8.19
2018-08-03T14:02:09.183Z,8.39
2018-08-03T14:03:09.167Z,8.19
2018-08-03T14:04:09.161Z,8.19
2018-08-03T14:05:09.145Z,7.80
2018-08-03T14:06:09.134Z,7.90
2018-08-03T14:07:09.123Z,7.59
2018-08-03T14:08:09.112Z,7.59
2018-08-03T14:09:09.101Z,8.00
2018-08-03T14:10:09.093Z,7.90
2018-08-03T14:11:09.082Z,8.39
2018-08-03T14:12:09.108Z,8.10
2018-08-03T14:13:09.073Z,8.10
2018-08-03T14:14:09.049Z,7.80
2018-08-03T14:15:09.038Z,8.30
2018-08-03T14:16:09.027Z,7.80
2018-08-03T14:17:09.016Z,8.10
2018-08-03T14:18:09.006Z,8.00
2018-08-03T14:19:08.996Z,8.30
2018-08-03T14:20:09.009Z,7.59
2018-08-03T14:21:08.977Z,8.50
2018-08-03T14:22:09.021Z,7.80
2018-08-03T14:23:08.954Z,8.10
2018-08-03T14:24:08.944Z,7.80
2018-08-03T14:25:08.935Z,7.90
2018-08-03T14:26:08.920Z,8.19
2018-08-03T14:27:08.909Z,7.80
2018-08-03T14:28:08.899Z,8.30
2018-08-03T14:29:08.889Z,8.00
2018-08-03T14:30:08.935Z,8.10
2018-08-03T14:31:08.867Z,8.10
2018-08-03T14:32:08.855Z,8.00
2018-08-03T14:33:08.844Z,8.00
2018-08-03T14:34:08.833Z,8.10
2018-08-03T14:35:08.824Z,7.90
2018-08-03T14:36:08.814Z,7.90
2018-08-03T14:37:08.804Z,7.90
2018-08-03T14:38:08.850Z,8.00
2018-08-03T14:39:08.779Z,8.30
2018-08-03T14:40:08.769Z,8.30
2018-08-03T14:41:08.783Z,7.80
2018-08-03T14:42:08.748Z,7.90
2018-08-03T14:43:08.740Z,8.19
2018-08-03T14:44:08.728Z,8.69
2018-08-03T14:45:08.716Z,8.39
2018-08-03T14:46:08.704Z,8.19
2018-08-03T14:47:08.696Z,8.30
2018-08-03T14:48:08.681Z,8.30
2018-08-03T14:49:08.672Z,8.10
2018-08-03T14:50:08.716Z,8.19
2018-08-03T14:51:08.652Z,8.30
2018-08-03T14:52:08.640Z,7.90
2018-08-03T14:53:08.629Z,7.90
2018-08-03T14:54:08.618Z,8.19
2018-08-03T14:55:08.608Z,8.30
2018-08-03T14:56:08.596Z,8.60
2018-08-03T14:57:08.583Z,8.60
2018-08-03T14:58:08.574Z,8.39
2018-08-03T14:59:08.564Z,8.50
2018-08-03T15:00:08.553Z,8.89
2018-08-03T15:01:08.542Z,8.80
2018-08-03T15:02:08.539Z,8.69
2018-08-03T15:03:08.519Z,8.39
2018-08-03T15:04:08.511Z,8.30
2018-08-03T15:05:08.498Z,8.60
2018-08-03T15:06:08.487Z,7.90
2018-08-03T15:07:08.477Z,7.90
2018-08-03T15:08:08.466Z,8.10
2018-08-03T15:09:08.465Z,8.30
2018-08-03T15:10:08.446Z,8.39
2018-08-03T15:11:08.434Z,8.39
2018-08-03T15:12:08.423Z,7.90
2018-08-03T15:13:08.413Z,7.90
2018-08-03T15:14:08.402Z,8.30
2018-08-03T15:15:08.392Z,8.10
2018-08-03T15:16:08.380Z,8.10
2018-08-03T15:17:08.370Z,7.80
2018-08-03T15:18:08.360Z,8.00
2018-08-03T15:19:08.350Z,8.39
2018-08-03T15:20:08.338Z,8.80
2018-08-03T15:21:08.355Z,8.60
2018-08-03T15:22:08.319Z,8.39
2018-08-03T15:23:08.308Z,9.19
2018-08-03T15:24:08.296Z,8.69
2018-08-03T15:25:08.285Z,8.80
2018-08-03T15:26:08.279Z,8.80
2018-08-03T15:27:08.265Z,8.60
2018-08-03T15:28:08.254Z,8.60
2018-08-03T15:29:08.244Z,8.50
2018-08-03T15:30:08.238Z,8.00
2018-08-03T15:31:08.223Z,9.00
2018-08-03T15:32:08.212Z,8.30
2018-08-03T15:33:08.201Z,8.50
2018-08-03T15:34:08.191Z,8.89
2018-08-03T15:35:08.205Z,8.60
2018-08-03T15:36:08.167Z,8.60
2018-08-03T15:37:08.159Z,9.30
2018-08-03T15:38:08.154Z,8.80
2018-08-03T15:39:08.135Z,9.00
2018-08-03T15:40:08.128Z,8.50
2018-08-03T15:41:08.116Z,9.39
2018-08-03T15:42:08.103Z,8.60
2018-08-03T15:43:08.093Z,8.69
2018-08-03T15:44:08.083Z,8.69
2018-08-03T15:45:08.074Z,8.50
2018-08-03T15:46:08.062Z,8.39
2018-08-03T15:47:08.051Z,9.00
2018-08-03T15:48:08.041Z,8.39
2018-08-03T15:49:08.028Z,8.19
2018-08-03T15:50:08.023Z,8.69
2018-08-03T15:51:08.007Z,8.80
2018-08-03T15:52:07.996Z,8.50
2018-08-03T15:53:07.985Z,8.69
2018-08-03T15:54:07.972Z,8.80
2018-08-03T15:55:07.964Z,8.69
2018-08-03T15:56:07.953Z,8.50
2018-08-03T15:57:07.943Z,8.50
2018-08-03T15:58:07.932Z,9.00
2018-08-03T15:59:07.919Z,8.50
2018-08-03T16:00:07.908Z,8.00
2018-08-03T16:01:07.899Z,8.69
2018-08-03T16:02:07.888Z,8.80
2018-08-03T16:03:07.877Z,8.10
2018-08-03T16:04:07.863Z,8.80
2018-08-03T16:05:07.855Z,8.39
2018-08-03T16:06:07.844Z,8.60
2018-08-03T16:07:07.834Z,8.00
2018-08-03T16:08:07.823Z,8.50
2018-08-03T16:09:07.812Z,8.50
2018-08-03T16:10:07.800Z,9.00
2018-08-03T16:11:07.790Z,9.39
2018-08-03T16:12:07.777Z,9.30
2018-08-03T16:13:07.768Z,37.59
2018-08-03T16:14:07.766Z,11.89
2018-08-03T16:15:07.748Z,8.89
2018-08-03T16:16:07.736Z,9.10
2018-08-03T16:17:07.722Z,8.80
2018-08-03T16:18:07.712Z,8.50
2018-08-03T16:19:07.701Z,8.69
2018-08-03T16:20:07.691Z,8.30
2018-08-03T16:21:07.680Z,7.90
2018-08-03T16:22:07.697Z,8.60
2018-08-03T16:23:07.659Z,8.10
2018-08-03T16:24:07.650Z,7.80
2018-08-03T16:25:07.639Z,8.19
2018-08-03T16:26:07.625Z,9.69
2018-08-03T16:27:07.619Z,11.39
2018-08-03T16:28:07.605Z,14.30
2018-08-03T16:29:07.595Z,12.69
2018-08-03T16:30:07.585Z,11.10
2018-08-03T16:31:07.573Z,16.29
2018-08-03T16:32:07.563Z,10.19
2018-08-03T16:33:07.552Z,42.50
2018-08-03T16:34:07.542Z,16.70
2018-08-03T16:35:07.532Z,9.19
2018-08-03T16:36:07.518Z,8.50
2018-08-03T16:37:07.508Z,8.00
2018-08-03T16:38:07.498Z,7.59
2018-08-03T16:39:07.487Z,8.80
2018-08-03T16:40:07.477Z,8.39
2018-08-03T16:41:07.467Z,7.80
2018-08-03T16:42:07.454Z,10.00
2018-08-03T16:43:07.444Z,24.00
2018-08-03T16:44:07.434Z,15.50
2018-08-03T16:45:07.421Z,10.10
2018-08-03T16:46:07.411Z,10.60
2018-08-03T16:47:07.400Z,9.10
2018-08-03T16:48:07.391Z,9.60
2018-08-03T16:49:07.379Z,10.50
2018-08-03T16:50:07.373Z,8.00
2018-08-03T16:51:07.362Z,8.39
2018-08-03T16:52:07.354Z,8.50
2018-08-03T16:53:07.337Z,8.50
2018-08-03T16:54:07.326Z,8.50
2018-08-03T16:55:07.316Z,7.69
2018-08-03T16:56:07.302Z,8.30
2018-08-03T16:57:07.292Z,8.39
2018-08-03T16:58:07.281Z,7.80
2018-08-03T16:59:07.270Z,8.30
2018-08-03T17:00:07.259Z,8.30
2018-08-03T17:01:07.248Z,8.39
2018-08-03T17:02:07.239Z,8.30
2018-08-03T17:03:07.228Z,8.19
2018-08-03T17:04:07.216Z,8.00
2018-08-03T17:05:07.212Z,8.19
2018-08-03T17:06:07.195Z,8.69
2018-08-03T17:07:07.190Z,8.19
2018-08-03T17:08:07.173Z,8.10
2018-08-03T17:09:07.163Z,8.80
2018-08-03T17:10:07.156Z,8.80
2018-08-03T17:11:07.142Z,8.30
2018-08-03T17:12:07.131Z,8.69
2018-08-03T17:13:07.148Z,8.60
2018-08-03T17:14:07.108Z,8.69
2018-08-03T17:15:07.097Z,8.39
2018-08-03T17:16:07.085Z,9.00
2018-08-03T17:17:07.077Z,8.69
2018-08-03T17:18:07.063Z,8.39
2018-08-03T17:19:07.054Z,8.39
2018-08-03T17:20:07.079Z,8.39
2018-08-03T17:21:07.030Z,8.19
2018-08-03T17:22:07.050Z,8.39
2018-08-03T17:23:07.012Z,8.39
2018-08-03T17:24:07.001Z,8.60
2018-08-03T17:25:06.989Z,8.60
2018-08-03T17:26:06.980Z,8.60
2018-08-03T17:27:06.969Z,8.30
2018-08-03T17:28:06.992Z,8.30
2018-08-03T17:29:06.945Z,8.19
2018-08-03T17:30:06.936Z,8.19
2018-08-03T17:31:06.924Z,8.30
2018-08-03T17:32:07.009Z,8.60
2018-08-03T17:33:06.902Z,8.00
2018-08-03T17:34:06.893Z,8.30
